createdAt,value
2019-04-29T00:00:47.857Z,99.99
2019-04-29T00:01:47.825Z,99.99
2019-04-29T00:02:47.810Z,99.99
2019-04-29T00:03:47.779Z,99.99
2019-04-29T00:04:47.784Z,99.99
2019-04-29T00:05:47.769Z,99.99
2019-04-29T00:06:47.784Z,99.99
2019-04-29T00:07:47.743Z,99.99
2019-04-29T00:08:47.761Z,99.99
2019-04-29T00:09:47.715Z,99.99
2019-04-29T00:10:47.733Z,99.99
2019-04-29T00:11:47.734Z,99.99
2019-04-29T00:12:47.708Z,99.99
2019-04-29T00:13:47.686Z,99.99
2019-04-29T00:14:47.673Z,99.99
2019-04-29T00:15:47.649Z,99.99
2019-04-29T00:16:47.636Z,99.99
2019-04-29T00:17:47.666Z,99.99
2019-04-29T00:18:47.672Z,99.99
2019-04-29T00:19:47.622Z,99.99
2019-04-29T00:20:47.600Z,99.99
2019-04-29T00:21:47.625Z,99.99
2019-04-29T00:22:47.575Z,99.99
2019-04-29T00:23:47.583Z,99.99
2019-04-29T00:24:47.591Z,99.99
2019-04-29T00:25:47.579Z,99.99
2019-04-29T00:26:47.532Z,99.99
2019-04-29T00:27:47.526Z,99.99
2019-04-29T00:28:50.340Z,99.99
2019-04-29T00:29:47.506Z,99.99
2019-04-29T00:30:47.509Z,99.99
2019-04-29T00:31:47.529Z,99.99
2019-04-29T00:32:47.473Z,99.99
2019-04-29T00:33:47.480Z,99.99
2019-04-29T00:34:47.449Z,99.99
2019-04-29T00:35:47.441Z,99.99
2019-04-29T00:36:47.421Z,99.99
2019-04-29T00:37:47.434Z,99.99
2019-04-29T00:38:47.405Z,99.99
2019-04-29T00:39:47.434Z,99.99
2019-04-29T00:40:47.384Z,99.99
2019-04-29T00:41:47.387Z,99.99
2019-04-29T00:42:47.376Z,99.99
2019-04-29T00:43:47.397Z,99.99
2019-04-29T00:44:47.350Z,99.99
2019-04-29T00:45:47.338Z,99.99
2019-04-29T00:46:47.339Z,99.99
2019-04-29T00:47:47.343Z,99.99
2019-04-29T00:48:47.292Z,99.99
2019-04-29T00:49:47.293Z,99.99
2019-04-29T00:50:47.283Z,99.99
2019-04-29T00:51:47.287Z,99.99
2019-04-29T00:52:47.309Z,99.99
2019-04-29T00:53:47.294Z,99.99
2019-04-29T00:54:47.248Z,99.99
2019-04-29T00:55:47.223Z,99.99
2019-04-29T00:56:47.211Z,99.99
2019-04-29T00:57:47.231Z,99.99
2019-04-29T00:58:47.212Z,99.99
2019-04-29T00:59:47.202Z,99.99
2019-04-29T01:00:47.174Z,99.99
2019-04-29T01:01:47.170Z,99.99
2019-04-29T01:02:47.164Z,99.99
2019-04-29T01:03:47.146Z,99.99
2019-04-29T01:04:47.192Z,99.99
2019-04-29T01:05:47.189Z,99.99
2019-04-29T01:06:47.103Z,99.99
2019-04-29T01:07:47.094Z,99.99
2019-04-29T01:08:47.098Z,99.99
2019-04-29T01:09:47.072Z,99.99
2019-04-29T01:10:47.094Z,99.99
2019-04-29T01:11:47.080Z,99.99
2019-04-29T01:12:47.049Z,99.99
2019-04-29T01:13:47.081Z,99.99
2019-04-29T01:14:47.024Z,99.99
2019-04-29T01:15:47.020Z,99.99
2019-04-29T01:16:47.048Z,99.99
2019-04-29T01:17:46.994Z,99.99
2019-04-29T01:18:46.985Z,99.99
2019-04-29T01:19:46.978Z,99.99
2019-04-29T01:20:46.967Z,99.99
2019-04-29T01:21:46.964Z,99.99
2019-04-29T01:22:46.959Z,99.99
2019-04-29T01:23:46.926Z,99.99
2019-04-29T01:24:46.940Z,99.99
2019-04-29T01:25:46.931Z,99.99
2019-04-29T01:26:46.904Z,99.99
2019-04-29T01:27:46.916Z,99.99
2019-04-29T01:28:49.367Z,99.99
2019-04-29T01:29:46.873Z,99.99
2019-04-29T01:30:46.852Z,99.99
2019-04-29T01:31:46.880Z,99.99
2019-04-29T01:32:46.836Z,99.99
2019-04-29T01:33:46.842Z,99.99
2019-04-29T01:34:46.836Z,99.99
2019-04-29T01:35:46.818Z,99.99
2019-04-29T01:36:46.820Z,99.99
2019-04-29T01:37:46.789Z,99.99
2019-04-29T01:38:48.736Z,99.99
2019-04-29T01:39:46.787Z,99.99
2019-04-29T01:40:46.771Z,99.99
2019-04-29T01:41:46.775Z,99.99
2019-04-29T01:42:46.737Z,99.99
2019-04-29T01:43:46.811Z,99.99
2019-04-29T01:44:46.724Z,99.99
2019-04-29T01:45:46.720Z,99.99
2019-04-29T01:46:46.694Z,99.99
2019-04-29T01:47:46.725Z,99.99
2019-04-29T01:48:46.664Z,99.99
2019-04-29T01:49:46.662Z,99.99
2019-04-29T01:50:46.681Z,99.99
2019-04-29T01:51:46.657Z,99.99
2019-04-29T01:52:46.645Z,99.99
2019-04-29T01:53:46.610Z,99.99
2019-04-29T01:54:46.629Z,99.99
2019-04-29T01:55:46.596Z,99.99
2019-04-29T01:56:46.592Z,99.99
2019-04-29T01:57:46.594Z,99.99
2019-04-29T01:58:46.574Z,99.99
2019-04-29T01:59:46.578Z,99.99
2019-04-29T02:00:46.543Z,99.99
2019-04-29T02:01:46.569Z,99.99
2019-04-29T02:02:46.545Z,99.99
2019-04-29T02:03:46.529Z,99.99
2019-04-29T02:04:46.515Z,99.99
2019-04-29T02:05:46.677Z,99.99
2019-04-29T02:06:46.500Z,99.99
2019-04-29T02:07:46.491Z,99.99
2019-04-29T02:08:46.479Z,99.99
2019-04-29T02:09:46.465Z,99.99
2019-04-29T02:10:46.467Z,99.99
2019-04-29T02:11:46.444Z,99.99
2019-04-29T02:12:46.592Z,99.99
2019-04-29T02:13:46.420Z,99.99
2019-04-29T02:14:46.455Z,99.99
2019-04-29T02:15:46.388Z,99.99
2019-04-29T02:16:46.415Z,99.99
2019-04-29T02:17:46.367Z,99.99
2019-04-29T02:18:46.374Z,99.99
2019-04-29T02:19:46.359Z,99.99
2019-04-29T02:20:46.347Z,99.99
2019-04-29T02:21:46.343Z,99.99
2019-04-29T02:22:46.329Z,99.99
2019-04-29T02:23:46.345Z,99.99
2019-04-29T02:24:46.298Z,99.99
2019-04-29T02:25:46.316Z,99.99
2019-04-29T02:26:46.297Z,99.99
2019-04-29T02:27:46.268Z,99.99
2019-04-29T02:28:46.248Z,99.99
2019-04-29T02:29:46.283Z,99.99
2019-04-29T02:30:46.249Z,99.99
2019-04-29T02:31:46.219Z,99.99
2019-04-29T02:32:46.232Z,99.99
2019-04-29T02:33:46.196Z,99.99
2019-04-29T02:34:46.212Z,99.99
2019-04-29T02:35:46.178Z,99.99
2019-04-29T02:36:46.161Z,99.99
2019-04-29T02:37:46.165Z,99.99
2019-04-29T02:38:46.145Z,99.99
2019-04-29T02:39:46.123Z,99.99
2019-04-29T02:40:46.144Z,99.99
2019-04-29T02:41:46.117Z,99.99
2019-04-29T02:42:46.099Z,99.99
2019-04-29T02:43:46.091Z,99.99
2019-04-29T02:44:46.104Z,99.99
2019-04-29T02:45:46.070Z,99.99
2019-04-29T02:46:46.061Z,99.99
2019-04-29T02:47:46.058Z,99.99
2019-04-29T02:48:46.050Z,99.99
2019-04-29T02:49:46.037Z,99.99
2019-04-29T02:50:46.017Z,99.99
2019-04-29T02:51:46.003Z,99.99
2019-04-29T02:52:46.010Z,99.99
2019-04-29T02:53:45.991Z,99.99
2019-04-29T02:54:45.990Z,99.99
2019-04-29T02:55:45.995Z,99.99
2019-04-29T02:56:45.956Z,99.99
2019-04-29T02:57:45.999Z,99.99
2019-04-29T02:58:45.925Z,99.99
2019-04-29T02:59:45.936Z,99.99
2019-04-29T03:00:45.955Z,99.99
2019-04-29T03:01:45.911Z,99.99
2019-04-29T03:02:45.898Z,99.99
2019-04-29T03:03:45.918Z,99.99
2019-04-29T03:04:45.874Z,99.99
2019-04-29T03:05:45.902Z,99.99
2019-04-29T03:06:45.907Z,99.99
2019-04-29T03:07:45.848Z,99.99
2019-04-29T03:08:45.864Z,99.99
2019-04-29T03:09:45.844Z,99.99
2019-04-29T03:10:45.857Z,99.99
2019-04-29T03:11:45.840Z,99.99
2019-04-29T03:12:45.811Z,99.99
2019-04-29T03:13:45.772Z,99.99
2019-04-29T03:14:45.835Z,99.99
2019-04-29T03:15:45.806Z,99.99
2019-04-29T03:16:45.734Z,99.99
2019-04-29T03:17:45.766Z,99.99
2019-04-29T03:18:45.733Z,99.99
2019-04-29T03:19:45.718Z,99.99
2019-04-29T03:20:45.715Z,99.99
2019-04-29T03:21:45.695Z,99.99
2019-04-29T03:22:45.680Z,99.99
2019-04-29T03:23:45.693Z,99.99
2019-04-29T03:24:45.653Z,99.99
2019-04-29T03:25:45.682Z,99.99
2019-04-29T03:26:45.631Z,99.99
2019-04-29T03:27:45.630Z,99.99
2019-04-29T03:28:45.615Z,99.99
2019-04-29T03:29:45.639Z,99.99
2019-04-29T03:30:45.586Z,99.99
2019-04-29T03:31:45.589Z,99.99
2019-04-29T03:32:45.569Z,99.99
2019-04-29T03:33:45.559Z,99.99
2019-04-29T03:34:45.547Z,99.99
2019-04-29T03:35:45.740Z,99.99
2019-04-29T03:36:45.550Z,99.99
2019-04-29T03:37:45.581Z,99.99
2019-04-29T03:38:45.520Z,99.99
2019-04-29T03:39:45.515Z,99.99
2019-04-29T03:40:45.480Z,99.99
2019-04-29T03:41:45.487Z,99.99
2019-04-29T03:42:45.458Z,99.99
2019-04-29T03:43:45.458Z,99.99
2019-04-29T03:44:45.462Z,99.99
2019-04-29T03:45:45.452Z,99.99
2019-04-29T03:46:45.442Z,99.99
2019-04-29T03:47:45.446Z,99.99
2019-04-29T03:48:45.401Z,99.99
2019-04-29T03:49:45.425Z,99.99
2019-04-29T03:50:45.377Z,99.99
2019-04-29T03:51:45.398Z,99.99
2019-04-29T03:52:45.373Z,99.99
2019-04-29T03:53:45.422Z,99.99
2019-04-29T03:54:45.363Z,99.99
2019-04-29T03:55:45.333Z,99.99
2019-04-29T03:56:45.318Z,99.99
2019-04-29T03:57:45.324Z,99.99
2019-04-29T03:58:45.291Z,99.99
2019-04-29T03:59:45.306Z,99.99
2019-04-29T04:00:45.319Z,99.99
2019-04-29T04:01:45.264Z,99.99
2019-04-29T04:02:45.251Z,99.99
2019-04-29T04:03:45.256Z,99.99
2019-04-29T04:04:45.251Z,99.99
2019-04-29T04:05:45.227Z,99.99
2019-04-29T04:06:45.210Z,99.99
2019-04-29T04:07:45.263Z,99.99
2019-04-29T04:08:45.190Z,99.99
2019-04-29T04:09:45.207Z,99.99
2019-04-29T04:10:45.169Z,99.99
2019-04-29T04:11:45.177Z,99.99
2019-04-29T04:12:45.189Z,99.99
2019-04-29T04:13:45.285Z,99.99
2019-04-29T04:14:45.161Z,99.99
2019-04-29T04:15:45.123Z,99.99
2019-04-29T04:16:45.135Z,99.99
2019-04-29T04:17:45.098Z,99.99
2019-04-29T04:18:45.095Z,99.99
2019-04-29T04:19:45.112Z,99.99
2019-04-29T04:20:45.126Z,99.99
2019-04-29T04:21:45.056Z,99.99
2019-04-29T04:22:45.070Z,99.99
2019-04-29T04:23:45.063Z,99.99
2019-04-29T04:24:45.018Z,99.99
2019-04-29T04:25:45.057Z,99.99
2019-04-29T04:26:44.998Z,99.99
2019-04-29T04:27:45.046Z,99.99
2019-04-29T04:28:44.993Z,99.99
2019-04-29T04:29:44.991Z,99.99
2019-04-29T04:30:44.990Z,99.99
2019-04-29T04:31:45.035Z,99.99
2019-04-29T04:32:44.946Z,99.99
2019-04-29T04:33:44.919Z,99.99
2019-04-29T04:34:44.936Z,99.99
2019-04-29T04:35:44.907Z,99.99
2019-04-29T04:36:44.951Z,99.99
2019-04-29T04:37:44.908Z,99.99
2019-04-29T04:38:44.928Z,99.99
2019-04-29T04:39:44.875Z,99.99
2019-04-29T04:40:44.856Z,99.99
2019-04-29T04:41:44.849Z,99.99
2019-04-29T04:42:44.870Z,99.99
2019-04-29T04:43:44.848Z,99.99
2019-04-29T04:44:44.854Z,99.99
2019-04-29T04:45:44.801Z,99.99
2019-04-29T04:46:44.785Z,99.99
2019-04-29T04:47:44.805Z,99.99
2019-04-29T04:48:44.779Z,99.99
2019-04-29T04:49:44.759Z,99.99
2019-04-29T04:50:44.750Z,99.99
2019-04-29T04:51:44.751Z,99.99
2019-04-29T04:52:44.752Z,99.99
2019-04-29T04:53:44.740Z,99.99
2019-04-29T04:54:44.710Z,99.99
2019-04-29T04:55:44.700Z,99.99
2019-04-29T04:56:44.679Z,99.99
2019-04-29T04:57:44.678Z,99.99
2019-04-29T04:58:44.685Z,99.99
2019-04-29T04:59:44.673Z,99.99
2019-04-29T05:00:44.683Z,99.99
2019-04-29T05:01:44.638Z,99.99
2019-04-29T05:02:44.648Z,99.99
2019-04-29T05:03:44.641Z,99.99
2019-04-29T05:04:44.606Z,99.99
2019-04-29T05:05:44.596Z,99.99
2019-04-29T05:06:44.590Z,99.61
2019-04-29T05:07:44.566Z,99.86
2019-04-29T05:08:44.568Z,99.24
2019-04-29T05:09:44.561Z,99.82
2019-04-29T05:10:44.537Z,99.66
2019-04-29T05:11:44.547Z,99.40
2019-04-29T05:12:44.535Z,99.15
2019-04-29T05:13:44.503Z,99.10
2019-04-29T05:14:44.512Z,98.48
2019-04-29T05:15:44.487Z,98.43
2019-04-29T05:16:44.482Z,97.25
2019-04-29T05:17:44.462Z,96.83
2019-04-29T05:18:44.448Z,97.04
2019-04-29T05:19:44.461Z,97.56
2019-04-29T05:20:44.425Z,96.69
2019-04-29T05:21:44.416Z,97.41
2019-04-29T05:22:44.427Z,97.41
2019-04-29T05:23:44.427Z,96.69
2019-04-29T05:24:44.399Z,96.48
2019-04-29T05:25:44.377Z,95.09
2019-04-29T05:26:44.387Z,94.53
2019-04-29T05:27:44.347Z,92.83
2019-04-29T05:28:44.337Z,91.75
2019-04-29T05:29:44.329Z,91.71
2019-04-29T05:30:44.313Z,89.67
2019-04-29T05:31:44.317Z,88.80
2019-04-29T05:32:44.315Z,89.34
2019-04-29T05:33:44.312Z,88.37
2019-04-29T05:34:46.525Z,86.47
2019-04-29T05:35:44.292Z,84.48
2019-04-29T05:36:44.314Z,83.55
2019-04-29T05:37:44.257Z,84.93
2019-04-29T05:38:44.231Z,84.14
2019-04-29T05:39:44.219Z,84.77
2019-04-29T05:40:44.212Z,84.48
2019-04-29T05:41:44.214Z,84.77
2019-04-29T05:42:44.192Z,80.42
2019-04-29T05:43:44.192Z,79.70
2019-04-29T05:44:44.171Z,80.52
2019-04-29T05:45:46.139Z,80.28
2019-04-29T05:46:44.156Z,80.21
2019-04-29T05:47:44.137Z,78.25
2019-04-29T05:48:44.137Z,78.60
2019-04-29T05:49:44.133Z,76.55
2019-04-29T05:50:47.564Z,79.11
2019-04-29T05:51:45.097Z,77.84
2019-04-29T05:52:44.104Z,78.05
2019-04-29T05:53:47.290Z,76.45
2019-04-29T05:54:45.059Z,77.85
2019-04-29T05:55:44.044Z,79.84
2019-04-29T05:56:44.032Z,80.18
2019-04-29T05:57:44.037Z,78.56
2019-04-29T05:58:44.020Z,77.20
2019-04-29T05:59:47.853Z,76.27
2019-04-29T06:00:44.991Z,76.24
2019-04-29T06:01:47.155Z,75.28
2019-04-29T06:02:43.991Z,75.18
2019-04-29T06:03:44.426Z,73.20
2019-04-29T06:04:44.117Z,74.08
2019-04-29T06:05:43.948Z,73.95
2019-04-29T06:06:43.938Z,74.90
2019-04-29T06:07:43.959Z,75.31
2019-04-29T06:08:43.921Z,74.63
2019-04-29T06:09:43.889Z,74.18
2019-04-29T06:10:43.901Z,69.96
2019-04-29T06:11:43.909Z,69.38
2019-04-29T06:12:44.615Z,67.69
2019-04-29T06:13:43.883Z,67.49
2019-04-29T06:14:43.856Z,64.92
2019-04-29T06:15:43.829Z,66.49
2019-04-29T06:16:43.818Z,62.58
2019-04-29T06:17:44.844Z,64.15
2019-04-29T06:18:44.051Z,63.04
2019-04-29T06:19:43.786Z,64.97
2019-04-29T06:20:43.778Z,67.38
2019-04-29T06:21:43.801Z,67.99
2019-04-29T06:22:43.753Z,69.12
2019-04-29T06:23:43.742Z,66.44
2019-04-29T06:24:43.818Z,64.70
2019-04-29T06:25:43.727Z,62.56
2019-04-29T06:26:43.910Z,61.71
2019-04-29T06:27:43.705Z,62.13
2019-04-29T06:28:43.695Z,64.06
2019-04-29T06:29:43.675Z,65.92
2019-04-29T06:30:45.145Z,67.08
2019-04-29T06:31:44.678Z,65.92
2019-04-29T06:32:43.650Z,65.02
2019-04-29T06:33:43.681Z,64.07
2019-04-29T06:34:43.629Z,63.54
2019-04-29T06:35:47.458Z,63.13
2019-04-29T06:36:44.661Z,60.74
2019-04-29T06:37:43.603Z,59.18
2019-04-29T06:38:43.590Z,61.05
2019-04-29T06:39:43.578Z,60.21
2019-04-29T06:40:43.562Z,59.22
2019-04-29T06:41:45.326Z,55.80
2019-04-29T06:42:43.564Z,56.45
2019-04-29T06:43:43.609Z,54.61
2019-04-29T06:44:44.313Z,52.04
2019-04-29T06:45:44.523Z,51.71
2019-04-29T06:46:43.514Z,51.61
2019-04-29T06:47:43.510Z,54.79
2019-04-29T06:48:43.481Z,56.56
2019-04-29T06:49:43.472Z,56.73
2019-04-29T06:50:43.470Z,56.23
2019-04-29T06:51:43.447Z,53.20
2019-04-29T06:52:43.462Z,53.07
2019-04-29T06:53:43.442Z,53.09
2019-04-29T06:54:43.412Z,54.36
2019-04-29T06:55:43.402Z,54.56
2019-04-29T06:56:43.395Z,51.91
2019-04-29T06:57:43.442Z,55.60
2019-04-29T06:58:43.398Z,57.80
2019-04-29T06:59:47.564Z,57.44
2019-04-29T07:00:44.349Z,55.24
2019-04-29T07:01:43.337Z,55.87
2019-04-29T07:02:45.448Z,53.00
2019-04-29T07:03:44.349Z,52.89
2019-04-29T07:04:43.327Z,54.18
2019-04-29T07:05:43.298Z,53.30
2019-04-29T07:06:56.424Z,55.65
2019-04-29T07:07:44.292Z,54.05
2019-04-29T07:08:43.267Z,54.79
2019-04-29T07:09:43.288Z,55.40
2019-04-29T07:10:43.269Z,59.00
2019-04-29T07:11:43.245Z,57.86
2019-04-29T07:12:47.384Z,56.90
2019-04-29T07:13:46.648Z,60.97
2019-04-29T07:14:43.208Z,64.86
2019-04-29T07:15:43.404Z,62.49
2019-04-29T07:16:43.199Z,62.68
2019-04-29T07:17:43.191Z,63.49
2019-04-29T07:18:48.265Z,64.01
2019-04-29T07:19:44.178Z,60.86
2019-04-29T07:20:43.175Z,62.45
2019-04-29T07:21:46.913Z,64.35
2019-04-29T07:22:44.124Z,63.10
2019-04-29T07:23:43.127Z,61.32
2019-04-29T07:24:43.106Z,63.18
2019-04-29T07:25:43.088Z,57.83
2019-04-29T07:26:43.107Z,57.29
2019-04-29T07:27:44.529Z,59.17
2019-04-29T07:28:43.060Z,61.53
2019-04-29T07:29:43.091Z,58.51
2019-04-29T07:31:00.645Z,57.37
2019-04-29T07:31:44.025Z,57.37
2019-04-29T07:32:47.089Z,60.74
2019-04-29T07:33:44.018Z,62.87
2019-04-29T07:34:42.997Z,63.18
2019-04-29T07:35:47.749Z,59.34
2019-04-29T07:36:43.969Z,57.95
2019-04-29T07:37:42.958Z,57.29
2019-04-29T07:38:46.533Z,55.16
2019-04-29T07:39:43.974Z,56.76
2019-04-29T07:40:43.722Z,55.92
2019-04-29T07:41:42.931Z,53.17
2019-04-29T07:42:42.915Z,55.04
2019-04-29T07:43:44.140Z,51.76
2019-04-29T07:44:44.164Z,52.14
2019-04-29T07:45:44.301Z,52.09
2019-04-29T07:46:56.153Z,53.14
2019-04-29T07:47:55.866Z,51.18
2019-04-29T07:48:43.899Z,53.14
2019-04-29T07:49:42.843Z,53.00
2019-04-29T07:50:42.864Z,51.54
2019-04-29T07:51:42.809Z,49.74
2019-04-29T07:52:45.701Z,46.78
2019-04-29T07:53:45.636Z,45.74
2019-04-29T07:54:42.798Z,45.86
2019-04-29T07:55:42.793Z,45.95
2019-04-29T07:56:43.671Z,48.79
2019-04-29T07:57:42.744Z,51.06
2019-04-29T07:58:42.760Z,51.73
2019-04-29T07:59:42.730Z,49.30
2019-04-29T08:00:44.655Z,46.98
2019-04-29T08:01:43.775Z,44.50
2019-04-29T08:02:42.715Z,46.98
2019-04-29T08:03:42.686Z,44.05
2019-04-29T08:04:42.734Z,41.61
2019-04-29T08:05:42.676Z,42.07
2019-04-29T08:06:44.695Z,40.90
2019-04-29T08:07:42.657Z,40.02
2019-04-29T08:08:54.273Z,40.86
2019-04-29T08:09:44.210Z,40.73
2019-04-29T08:10:54.002Z,43.13
2019-04-29T08:11:43.601Z,43.11
2019-04-29T08:12:42.616Z,40.34
2019-04-29T08:13:42.603Z,40.62
2019-04-29T08:14:42.574Z,42.47
2019-04-29T08:15:43.612Z,44.15
2019-04-29T08:16:42.552Z,41.77
2019-04-29T08:17:42.546Z,42.10
2019-04-29T08:18:42.594Z,44.03
2019-04-29T08:19:42.519Z,39.40
2019-04-29T08:20:42.514Z,40.68
2019-04-29T08:21:45.470Z,40.12
2019-04-29T08:22:43.491Z,38.79
2019-04-29T08:23:42.479Z,38.49
2019-04-29T08:24:45.998Z,39.04
2019-04-29T08:25:43.465Z,39.62
2019-04-29T08:26:47.337Z,40.40
2019-04-29T08:27:43.894Z,40.98
2019-04-29T08:28:42.437Z,39.46
2019-04-29T08:29:42.454Z,40.40
2019-04-29T08:30:45.869Z,37.17
2019-04-29T08:31:42.409Z,34.50
2019-04-29T08:32:42.456Z,31.65
2019-04-29T08:33:46.350Z,31.10
2019-04-29T08:34:42.438Z,31.09
2019-04-29T08:35:42.370Z,34.68
2019-04-29T08:36:42.409Z,38.18
2019-04-29T08:37:42.391Z,41.47
2019-04-29T08:38:42.351Z,42.63
2019-04-29T08:39:42.352Z,42.47
2019-04-29T08:40:45.116Z,42.63
2019-04-29T08:41:43.330Z,41.14
2019-04-29T08:42:46.666Z,40.66
2019-04-29T08:43:42.391Z,40.46
2019-04-29T08:44:42.305Z,38.03
2019-04-29T08:45:42.284Z,39.16
2019-04-29T08:46:44.403Z,38.67
2019-04-29T08:47:43.279Z,40.12
2019-04-29T08:48:42.293Z,36.99
2019-04-29T08:49:42.249Z,36.72
2019-04-29T08:50:42.262Z,34.76
2019-04-29T08:51:42.229Z,36.19
2019-04-29T08:52:42.230Z,38.38
2019-04-29T08:53:42.211Z,36.04
2019-04-29T08:54:42.218Z,39.01
2019-04-29T08:55:42.195Z,39.44
2019-04-29T08:57:01.693Z,38.33
2019-04-29T08:57:43.199Z,39.08
2019-04-29T08:58:44.166Z,39.38
2019-04-29T08:59:43.212Z,38.80
2019-04-29T09:00:42.138Z,39.84
2019-04-29T09:01:42.132Z,34.73
2019-04-29T09:02:47.064Z,35.28
2019-04-29T09:03:43.228Z,33.08
2019-04-29T09:04:52.743Z,33.17
2019-04-29T09:05:46.198Z,36.95
2019-04-29T09:06:43.089Z,38.73
2019-04-29T09:07:42.078Z,38.41
2019-04-29T09:08:53.994Z,36.92
2019-04-29T09:09:43.084Z,38.01
2019-04-29T09:10:42.069Z,37.60
2019-04-29T09:11:43.548Z,38.90
2019-04-29T09:12:43.026Z,39.25
2019-04-29T09:13:42.017Z,38.76
2019-04-29T09:14:42.012Z,37.68
2019-04-29T09:15:42.044Z,35.17
2019-04-29T09:16:42.007Z,36.37
2019-04-29T09:17:41.991Z,38.35
2019-04-29T09:18:42.064Z,37.18
2019-04-29T09:19:41.984Z,34.92
2019-04-29T09:20:41.955Z,35.37
2019-04-29T09:21:41.969Z,33.51
2019-04-29T09:22:41.947Z,31.32
2019-04-29T09:23:41.959Z,29.63
2019-04-29T09:24:43.524Z,31.07
2019-04-29T09:25:42.913Z,31.41
2019-04-29T09:26:41.900Z,29.62
2019-04-29T09:27:44.984Z,28.85
2019-04-29T09:28:41.888Z,26.86
2019-04-29T09:29:41.886Z,26.90
2019-04-29T09:30:41.870Z,27.19
2019-04-29T09:31:41.927Z,25.88
2019-04-29T09:32:41.883Z,25.79
2019-04-29T09:33:44.201Z,27.09
2019-04-29T09:34:42.830Z,29.71
2019-04-29T09:35:41.826Z,28.51
2019-04-29T09:36:43.892Z,29.82
2019-04-29T09:37:42.800Z,30.06
2019-04-29T09:38:41.829Z,29.79
2019-04-29T09:39:43.322Z,29.44
2019-04-29T09:40:41.804Z,26.51
2019-04-29T09:41:41.768Z,29.99
2019-04-29T09:42:45.654Z,30.06
2019-04-29T09:43:42.747Z,29.62
2019-04-29T09:44:44.793Z,28.11
2019-04-29T09:45:41.802Z,27.86
2019-04-29T09:46:41.734Z,30.02
2019-04-29T09:47:41.705Z,30.29
2019-04-29T09:48:41.762Z,32.20
2019-04-29T09:49:41.697Z,33.07
2019-04-29T09:50:41.695Z,34.92
2019-04-29T09:51:41.680Z,31.96
2019-04-29T09:52:41.688Z,31.77
2019-04-29T09:53:41.753Z,30.34
2019-04-29T09:54:41.659Z,32.93
2019-04-29T09:55:41.637Z,34.10
2019-04-29T09:56:41.636Z,34.15
2019-04-29T09:57:41.624Z,32.71
2019-04-29T09:58:41.620Z,34.78
2019-04-29T09:59:41.630Z,35.22
2019-04-29T10:00:41.973Z,32.79
2019-04-29T10:01:41.596Z,35.10
2019-04-29T10:02:41.611Z,37.38
2019-04-29T10:03:41.564Z,34.96
2019-04-29T10:04:55.391Z,34.25
2019-04-29T10:05:42.598Z,36.16
2019-04-29T10:06:41.537Z,34.34
2019-04-29T10:07:41.526Z,33.45
2019-04-29T10:08:41.521Z,31.92
2019-04-29T10:09:41.504Z,31.49
2019-04-29T10:10:41.752Z,31.05
2019-04-29T10:11:41.490Z,32.36
2019-04-29T10:12:41.469Z,31.88
2019-04-29T10:13:41.473Z,31.87
2019-04-29T10:14:41.465Z,31.68
2019-04-29T10:15:41.463Z,34.41
2019-04-29T10:16:41.480Z,34.22
2019-04-29T10:17:41.433Z,34.43
2019-04-29T10:18:41.422Z,34.76
2019-04-29T10:19:41.407Z,32.54
2019-04-29T10:20:41.407Z,31.74
2019-04-29T10:21:41.391Z,32.67
2019-04-29T10:22:41.484Z,33.12
2019-04-29T10:23:41.376Z,34.33
2019-04-29T10:24:41.359Z,35.93
2019-04-29T10:25:41.365Z,37.68
2019-04-29T10:26:41.343Z,34.18
2019-04-29T10:27:41.351Z,34.23
2019-04-29T10:28:41.375Z,35.24
2019-04-29T10:29:41.314Z,33.80
2019-04-29T10:30:41.303Z,34.73
2019-04-29T10:31:41.289Z,35.29
2019-04-29T10:32:42.538Z,35.17
2019-04-29T10:33:41.281Z,34.94
2019-04-29T10:34:43.101Z,31.96
2019-04-29T10:35:45.219Z,34.64
2019-04-29T10:36:41.241Z,35.13
2019-04-29T10:37:41.238Z,38.45
2019-04-29T10:38:44.972Z,41.17
2019-04-29T10:39:42.437Z,42.60
2019-04-29T10:40:41.223Z,42.69
2019-04-29T10:41:41.770Z,41.65
2019-04-29T10:42:41.186Z,44.45
2019-04-29T10:43:41.204Z,41.95
2019-04-29T10:44:41.160Z,43.96
2019-04-29T10:45:41.187Z,44.55
2019-04-29T10:46:41.146Z,43.66
2019-04-29T10:47:41.153Z,43.54
2019-04-29T10:48:41.132Z,44.17
2019-04-29T10:49:41.119Z,46.26
2019-04-29T10:50:41.102Z,46.61
2019-04-29T10:51:41.114Z,46.94
2019-04-29T10:52:43.492Z,47.79
2019-04-29T10:53:41.104Z,49.18
2019-04-29T10:54:41.061Z,49.13
2019-04-29T10:55:41.060Z,47.40
2019-04-29T10:56:41.167Z,47.78
2019-04-29T10:57:44.917Z,46.45
2019-04-29T10:58:42.014Z,46.00
2019-04-29T10:59:45.006Z,45.72
2019-04-29T11:00:42.020Z,47.32
2019-04-29T11:01:40.990Z,48.68
2019-04-29T11:02:44.834Z,48.78
2019-04-29T11:03:41.959Z,48.85
2019-04-29T11:04:40.956Z,46.11
2019-04-29T11:05:44.650Z,47.72
2019-04-29T11:06:44.015Z,46.69
2019-04-29T11:07:40.933Z,46.97
2019-04-29T11:08:43.196Z,44.31
2019-04-29T11:09:40.898Z,43.82
2019-04-29T11:10:41.056Z,46.80
2019-04-29T11:11:40.920Z,45.17
2019-04-29T11:12:40.881Z,45.25
2019-04-29T11:13:48.046Z,46.15
2019-04-29T11:14:41.848Z,45.55
2019-04-29T11:15:40.848Z,45.33
2019-04-29T11:16:46.379Z,46.70
2019-04-29T11:17:44.538Z,47.71
2019-04-29T11:18:40.838Z,47.13
2019-04-29T11:19:41.693Z,46.77
2019-04-29T11:20:40.779Z,48.30
2019-04-29T11:21:40.791Z,47.40
2019-04-29T11:22:40.758Z,46.09
2019-04-29T11:23:40.760Z,47.32
2019-04-29T11:24:40.768Z,47.85
2019-04-29T11:25:40.803Z,48.81
2019-04-29T11:26:40.729Z,47.27
2019-04-29T11:27:40.732Z,48.89
2019-04-29T11:28:40.711Z,46.67
2019-04-29T11:29:40.732Z,46.97
2019-04-29T11:30:40.773Z,46.14
2019-04-29T11:31:40.675Z,44.78
2019-04-29T11:32:40.656Z,46.79
2019-04-29T11:33:41.719Z,43.74
2019-04-29T11:34:40.673Z,45.07
2019-04-29T11:35:40.621Z,44.70
2019-04-29T11:36:43.941Z,46.19
2019-04-29T11:37:40.609Z,44.25
2019-04-29T11:38:40.611Z,46.67
2019-04-29T11:39:40.583Z,44.05
2019-04-29T11:40:43.604Z,45.26
2019-04-29T11:41:40.573Z,44.23
2019-04-29T11:42:41.702Z,45.03
2019-04-29T11:43:40.580Z,43.62
2019-04-29T11:44:40.576Z,44.63
2019-04-29T11:45:40.515Z,43.93
2019-04-29T11:46:40.512Z,43.74
2019-04-29T11:47:40.495Z,44.09
2019-04-29T11:48:40.489Z,44.90
2019-04-29T11:49:40.467Z,45.70
2019-04-29T11:50:40.478Z,46.89
2019-04-29T11:52:05.312Z,46.37
2019-04-29T11:52:41.433Z,44.53
2019-04-29T11:53:40.424Z,44.69
2019-04-29T11:54:40.471Z,44.49
2019-04-29T11:55:43.436Z,42.88
2019-04-29T11:56:41.400Z,43.82
2019-04-29T11:57:41.335Z,43.85
2019-04-29T11:58:40.372Z,44.27
2019-04-29T11:59:40.379Z,45.98
2019-04-29T12:00:40.540Z,45.97
2019-04-29T12:01:46.883Z,45.01
2019-04-29T12:02:45.885Z,44.69
2019-04-29T12:03:40.321Z,44.89
2019-04-29T12:04:42.221Z,43.79
2019-04-29T12:05:44.713Z,44.09
2019-04-29T12:06:41.345Z,43.59
2019-04-29T12:07:40.280Z,43.59
2019-04-29T12:08:40.268Z,43.46
2019-04-29T12:09:40.253Z,44.27
2019-04-29T12:10:48.469Z,42.46
2019-04-29T12:11:41.233Z,43.42
2019-04-29T12:12:43.735Z,45.18
2019-04-29T12:13:41.207Z,46.39
2019-04-29T12:14:40.390Z,46.77
2019-04-29T12:15:40.181Z,44.55
2019-04-29T12:16:40.178Z,44.70
2019-04-29T12:17:40.174Z,46.19
2019-04-29T12:18:40.177Z,45.58
2019-04-29T12:19:40.177Z,45.46
2019-04-29T12:20:40.159Z,45.56
2019-04-29T12:21:40.121Z,44.98
2019-04-29T12:22:48.038Z,45.98
2019-04-29T12:23:41.121Z,46.19
2019-04-29T12:24:40.081Z,45.38
2019-04-29T12:25:40.080Z,45.78
2019-04-29T12:26:44.355Z,46.71
2019-04-29T12:27:40.051Z,46.92
2019-04-29T12:28:42.737Z,47.82
2019-04-29T12:29:40.053Z,44.79
2019-04-29T12:30:40.059Z,46.33
2019-04-29T12:31:40.015Z,46.31
2019-04-29T12:32:43.218Z,46.13
2019-04-29T12:33:39.987Z,46.13
2019-04-29T12:34:39.977Z,47.02
2019-04-29T12:35:51.132Z,46.09
2019-04-29T12:36:54.769Z,46.79
2019-04-29T12:37:40.947Z,45.94
2019-04-29T12:38:40.592Z,45.64
2019-04-29T12:39:43.320Z,44.33
2019-04-29T12:40:39.915Z,45.74
2019-04-29T12:41:48.639Z,43.95
2019-04-29T12:42:41.538Z,44.47
2019-04-29T12:43:39.887Z,44.79
2019-04-29T12:44:44.357Z,45.89
2019-04-29T12:45:40.856Z,44.37
2019-04-29T12:46:39.847Z,45.64
2019-04-29T12:47:39.831Z,44.23
2019-04-29T12:48:39.866Z,43.32
2019-04-29T12:49:42.468Z,43.82
2019-04-29T12:50:40.840Z,43.60
2019-04-29T12:51:39.801Z,42.70
2019-04-29T12:52:39.781Z,43.74